createdAt,value
2023-01-18T00:00:20.943Z,-0.35
2023-01-18T00:05:24.055Z,-0.15
2023-01-18T00:10:26.903Z,-0.34
2023-01-18T00:15:30.859Z,-0.16
2023-01-18T00:20:33.402Z,-0.16
2023-01-18T00:25:35.999Z,-0.17
2023-01-18T00:30:39.932Z,-0.03
2023-01-18T00:35:42.516Z,-0.12
2023-01-18T00:40:45.161Z,-0.21
2023-01-18T00:45:47.728Z,-0.17
2023-01-18T00:50:50.245Z,-0.13
2023-01-18T00:55:52.798Z,-0.19
2023-01-18T01:00:55.523Z,-0.17
2023-01-18T01:06:17.073Z,-0.29
2023-01-18T01:11:19.727Z,-0.17
2023-01-18T01:16:41.468Z,-0.12
2023-01-18T01:22:02.852Z,-0.22
2023-01-18T01:27:05.430Z,-0.07
2023-01-18T01:32:08.487Z,-0.09
2023-01-18T01:37:11.086Z,-0.02
2023-01-18T01:42:13.612Z,-0.23
2023-01-18T01:47:39.818Z,0.10
2023-01-18T01:52:45.899Z,-0.02
2023-01-18T01:58:11.601Z,0.13
2023-01-18T02:03:20.293Z,0.24
2023-01-18T02:08:23.438Z,0.09
2023-01-18T02:13:26.750Z,-0.03
2023-01-18T02:18:40.504Z,0.05
2023-01-18T02:24:07.349Z,0.07
2023-01-18T02:29:18.939Z,0.00
2023-01-18T02:34:41.689Z,-0.01
2023-01-18T02:40:13.894Z,-0.04
2023-01-18T02:45:44.223Z,-0.06
2023-01-18T02:50:48.909Z,-0.04
2023-01-18T02:56:18.975Z,-0.08
2023-01-18T03:01:37.040Z,-0.20
2023-01-18T03:06:42.897Z,0.08
2023-01-18T03:11:50.944Z,0.09
2023-01-18T03:17:17.945Z,0.14
2023-01-18T03:22:40.581Z,0.04
2023-01-18T03:28:04.314Z,0.03
2023-01-18T03:33:27.203Z,0.10
2023-01-18T03:38:31.968Z,0.12
2023-01-18T03:43:37.943Z,-0.07
2023-01-18T03:48:40.724Z,0.11
2023-01-18T03:53:56.129Z,0.07
2023-01-18T03:59:03.400Z,0.07
2023-01-18T04:04:05.966Z,0.03
2023-01-18T04:09:08.643Z,-0.07
2023-01-18T04:14:11.178Z,0.04
2023-01-18T04:19:13.801Z,-0.04
2023-01-18T04:24:17.381Z,-0.05
2023-01-18T04:29:19.962Z,0.01
2023-01-18T04:34:23.115Z,0.07
2023-01-18T04:39:25.757Z,0.06
2023-01-18T04:44:28.354Z,-0.06
2023-01-18T04:49:33.210Z,0.15
2023-01-18T04:54:35.780Z,0.12
2023-01-18T04:59:39.411Z,0.07
2023-01-18T05:04:42.152Z,-0.12
2023-01-18T05:09:44.740Z,0.03
2023-01-18T05:14:47.317Z,0.12
2023-01-18T05:19:49.910Z,-0.07
2023-01-18T05:24:52.527Z,0.14
2023-01-18T05:29:55.068Z,0.17
2023-01-18T05:34:57.610Z,0.17
2023-01-18T05:40:00.306Z,0.16
2023-01-18T05:45:02.970Z,0.13
2023-01-18T05:50:07.290Z,0.17
2023-01-18T05:55:09.863Z,0.14
2023-01-18T06:00:12.729Z,0.12
2023-01-18T06:05:16.072Z,0.20
2023-01-18T06:10:19.068Z,0.33
2023-01-18T06:15:21.666Z,0.38
2023-01-18T06:20:25.036Z,0.38
2023-01-18T06:25:27.752Z,0.39
2023-01-18T06:30:30.382Z,0.29
2023-01-18T06:35:37.138Z,0.33
2023-01-18T06:40:39.872Z,0.28
2023-01-18T06:45:42.583Z,0.29
2023-01-18T06:50:45.190Z,0.49
2023-01-18T06:55:59.069Z,0.35
2023-01-18T07:01:01.852Z,0.45
2023-01-18T07:06:05.907Z,0.42
2023-01-18T07:11:10.467Z,0.47
2023-01-18T07:16:17.630Z,0.47
2023-01-18T07:21:22.935Z,0.56
2023-01-18T07:26:26.245Z,0.65
2023-01-18T07:31:30.348Z,0.52
2023-01-18T07:36:32.983Z,0.81
2023-01-18T07:41:35.529Z,0.54
2023-01-18T07:46:38.690Z,0.69
2023-01-18T07:51:42.647Z,0.65
2023-01-18T07:56:45.336Z,0.75
2023-01-18T08:01:47.891Z,0.80
2023-01-18T08:06:51.435Z,0.88
2023-01-18T08:11:54.093Z,0.69
2023-01-18T08:16:56.738Z,0.98
2023-01-18T08:21:59.289Z,1.09
2023-01-18T08:27:01.961Z,1.21
2023-01-18T08:32:04.665Z,1.27
2023-01-18T08:37:07.322Z,1.10
2023-01-18T08:42:12.852Z,1.07
2023-01-18T08:47:16.158Z,1.04
2023-01-18T08:52:18.724Z,1.00
2023-01-18T08:57:21.801Z,1.13
2023-01-18T09:02:27.415Z,1.10
2023-01-18T09:07:30.039Z,1.15
2023-01-18T09:12:34.928Z,1.28
2023-01-18T09:17:37.529Z,1.21
2023-01-18T09:22:40.201Z,1.40
2023-01-18T09:27:43.196Z,1.42
2023-01-18T09:32:45.814Z,1.39
2023-01-18T09:37:48.506Z,1.49
2023-01-18T09:42:52.766Z,1.63
2023-01-18T09:48:05.884Z,1.48
2023-01-18T09:53:26.972Z,1.51
2023-01-18T09:59:15.226Z,1.62
2023-01-18T10:04:20.676Z,1.71
2023-01-18T10:09:30.086Z,1.53
2023-01-18T10:15:31.961Z,1.62
2023-01-18T10:20:57.326Z,1.59
2023-01-18T10:26:04.095Z,1.50
2023-01-18T10:31:44.403Z,1.39
2023-01-18T10:36:55.365Z,1.02
2023-01-18T10:42:02.744Z,1.02
2023-01-18T10:47:06.160Z,1.23
2023-01-18T10:52:28.718Z,1.40
2023-01-18T10:57:37.448Z,1.29
2023-01-18T11:02:40.641Z,1.14
2023-01-18T11:07:43.302Z,1.16
2023-01-18T11:12:48.082Z,1.42
2023-01-18T11:17:50.744Z,1.51
2023-01-18T11:23:01.813Z,1.49
2023-01-18T11:28:07.575Z,1.43
2023-01-18T11:33:18.685Z,1.40
2023-01-18T11:38:26.780Z,1.39
2023-01-18T11:43:32.770Z,1.21
2023-01-18T11:48:42.249Z,1.28
2023-01-18T11:53:54.407Z,1.06
2023-01-18T11:58:57.330Z,1.02
2023-01-18T12:04:23.326Z,1.17
2023-01-18T12:09:43.416Z,1.07
2023-01-18T12:15:43.179Z,1.13
2023-01-18T12:21:27.579Z,1.08
2023-01-18T12:26:35.807Z,1.05
2023-01-18T12:31:40.960Z,1.14
2023-01-18T12:36:49.387Z,1.10
2023-01-18T12:42:05.817Z,1.06
2023-01-18T12:47:39.614Z,1.01
2023-01-18T12:53:02.966Z,1.06
2023-01-18T12:58:06.643Z,1.03
2023-01-18T13:03:16.566Z,1.07
2023-01-18T13:08:59.715Z,0.95
2023-01-18T13:14:33.587Z,0.98
2023-01-18T13:19:54.679Z,0.86
2023-01-18T13:25:19.492Z,0.85
2023-01-18T13:30:22.182Z,0.74
2023-01-18T13:35:33.317Z,0.61
2023-01-18T13:40:43.107Z,0.86
2023-01-18T13:46:08.329Z,0.94
2023-01-18T13:51:37.119Z,0.88
2023-01-18T13:56:40.624Z,0.74
2023-01-18T14:01:45.655Z,0.72
2023-01-18T14:06:49.589Z,0.71
2023-01-18T14:11:55.487Z,0.76
2023-01-18T14:17:12.942Z,0.74
2023-01-18T14:22:21.267Z,0.72
2023-01-18T14:27:28.517Z,0.66
2023-01-18T14:32:37.827Z,0.72
2023-01-18T14:37:40.354Z,0.68
2023-01-18T14:42:51.069Z,0.72
2023-01-18T14:47:59.445Z,0.75
2023-01-18T14:53:02.245Z,0.82
2023-01-18T14:58:14.774Z,0.89
2023-01-18T15:03:26.434Z,0.98
2023-01-18T15:08:31.450Z,0.95
2023-01-18T15:13:47.467Z,0.81
2023-01-18T15:18:52.197Z,0.75
2023-01-18T15:24:02.708Z,0.84
2023-01-18T15:29:13.651Z,0.86
2023-01-18T15:34:18.830Z,0.85
2023-01-18T15:39:21.591Z,0.66
2023-01-18T15:44:40.735Z,0.88
2023-01-18T15:49:51.999Z,0.97
2023-01-18T15:54:55.450Z,0.89
2023-01-18T16:00:01.900Z,1.01
2023-01-18T16:05:20.433Z,0.85
2023-01-18T16:10:33.114Z,0.80
2023-01-18T16:15:35.801Z,0.68
2023-01-18T16:20:38.854Z,0.75
2023-01-18T16:25:41.807Z,0.71
2023-01-18T16:30:50.286Z,0.73
2023-01-18T16:35:53.127Z,0.65
2023-01-18T16:40:55.695Z,0.44
2023-01-18T16:45:59.121Z,0.50
2023-01-18T16:51:01.970Z,0.46
2023-01-18T16:56:04.656Z,0.32
2023-01-18T17:01:12.799Z,0.36
2023-01-18T17:06:22.855Z,0.24
2023-01-18T17:11:25.615Z,0.20
2023-01-18T17:16:28.273Z,0.32
2023-01-18T17:21:30.971Z,0.28
2023-01-18T17:26:33.608Z,0.24
2023-01-18T17:31:41.661Z,0.22
2023-01-18T17:36:47.399Z,0.11
2023-01-18T17:41:50.130Z,-0.02
2023-01-18T17:46:52.876Z,0.01
2023-01-18T17:51:55.558Z,0.14
2023-01-18T17:56:58.151Z,0.01
2023-01-18T18:02:00.776Z,-0.01
2023-01-18T18:07:03.786Z,0.03
2023-01-18T18:12:10.473Z,-0.07
2023-01-18T18:17:13.135Z,-0.24
2023-01-18T18:22:15.975Z,-0.09
2023-01-18T18:27:19.081Z,0.03
2023-01-18T18:32:24.499Z,0.07
2023-01-18T18:37:27.084Z,0.07
2023-01-18T18:42:29.683Z,-0.01
2023-01-18T18:47:32.581Z,-0.04
2023-01-18T18:52:35.412Z,0.10
2023-01-18T18:57:37.984Z,0.09
2023-01-18T19:02:40.552Z,-0.02
2023-01-18T19:07:43.580Z,-0.25
2023-01-18T19:12:46.117Z,0.10
2023-01-18T19:17:50.585Z,0.08
2023-01-18T19:22:53.343Z,-0.06
2023-01-18T19:27:55.910Z,0.03
2023-01-18T19:33:00.031Z,0.02
2023-01-18T19:38:03.036Z,0.05
2023-01-18T19:43:05.755Z,0.21
2023-01-18T19:48:08.437Z,0.15
2023-01-18T19:53:11.139Z,0.14
2023-01-18T19:58:13.713Z,0.04
2023-01-18T20:03:16.308Z,0.25
2023-01-18T20:08:19.035Z,0.04
2023-01-18T20:13:21.588Z,0.19
2023-01-18T20:18:24.180Z,0.16
2023-01-18T20:23:26.718Z,0.12
2023-01-18T20:28:29.474Z,0.24
2023-01-18T20:33:33.644Z,0.27
2023-01-18T20:38:36.244Z,0.22
2023-01-18T20:43:39.020Z,0.03
2023-01-18T20:48:41.615Z,0.32
2023-01-18T20:53:44.234Z,0.30
2023-01-18T20:58:46.762Z,0.36
2023-01-18T21:03:54.573Z,0.47
2023-01-18T21:08:58.599Z,0.31
2023-01-18T21:14:01.380Z,0.50
2023-01-18T21:19:04.581Z,0.47
2023-01-18T21:24:07.426Z,0.39
2023-01-18T21:29:10.011Z,0.49
2023-01-18T21:34:12.715Z,0.47
2023-01-18T21:39:18.519Z,0.43
2023-01-18T21:44:39.521Z,0.58
2023-01-18T21:50:17.851Z,0.55
2023-01-18T21:55:21.854Z,0.63
2023-01-18T22:00:24.448Z,0.65
2023-01-18T22:05:27.077Z,0.66
2023-01-18T22:10:29.858Z,0.63
2023-01-18T22:15:32.546Z,0.77
2023-01-18T22:20:35.394Z,0.83
2023-01-18T22:25:38.053Z,0.85
2023-01-18T22:30:40.604Z,0.79
2023-01-18T22:35:43.564Z,0.77
2023-01-18T22:40:46.158Z,0.71
2023-01-18T22:45:55.442Z,0.71
2023-01-18T22:51:02.686Z,0.69
2023-01-18T22:56:08.665Z,0.81
2023-01-18T23:01:26.762Z,0.76
2023-01-18T23:06:42.287Z,0.68
2023-01-18T23:11:45.778Z,0.76
2023-01-18T23:17:07.121Z,0.82
2023-01-18T23:22:10.660Z,0.86
2023-01-18T23:27:13.179Z,0.78
2023-01-18T23:32:15.756Z,0.89
2023-01-18T23:37:18.332Z,0.97
2023-01-18T23:42:40.051Z,1.00
2023-01-18T23:48:01.843Z,0.92
2023-01-18T23:53:23.269Z,0.84
2023-01-18T23:58:26.087Z,0.81
